sensor_id;sensor_type;location;lat;lon;timestamp;P1;durP1;ratioP1;P2;durP2;ratioP2
22060;SDS011;11194;48.092;-1.382;2023-06-19T00:00:07;26.95;;;12.55;;
22060;SDS011;11194;48.092;-1.382;2023-06-19T00:02:38;29.05;;;12.25;;
22060;SDS011;11194;48.092;-1.382;2023-06-19T00:05:05;27.10;;;12.40;;
22060;SDS011;11194;48.092;-1.382;2023-06-19T00:07:32;25.23;;;12.18;;
22060;SDS011;11194;48.092;-1.382;2023-06-19T00:09:58;34.15;;;13.93;;
22060;SDS011;11194;48.092;-1.382;2023-06-19T00:12:24;28.88;;;13.32;;
22060;SDS011;11194;48.092;-1.382;2023-06-19T00:14:50;24.70;;;13.38;;
22060;SDS011;11194;48.092;-1.382;2023-06-19T00:17:16;28.65;;;14.75;;
22060;SDS011;11194;48.092;-1.382;2023-06-19T00:19:43;29.85;;;14.35;;
22060;SDS011;11194;48.092;-1.382;2023-06-19T00:22:09;32.20;;;14.93;;
22060;SDS011;11194;48.092;-1.382;2023-06-19T00:24:35;30.77;;;14.80;;
22060;SDS011;11194;48.092;-1.382;2023-06-19T00:27:01;36.60;;;15.55;;
22060;SDS011;11194;48.092;-1.382;2023-06-19T00:29:30;28.35;;;15.93;;
22060;SDS011;11194;48.092;-1.382;2023-06-19T00:31:56;29.08;;;15.13;;
22060;SDS011;11194;48.092;-1.382;2023-06-19T00:34:22;26.00;;;14.75;;
22060;SDS011;11194;48.092;-1.382;2023-06-19T00:36:49;22.40;;;13.57;;
22060;SDS011;11194;48.092;-1.382;2023-06-19T00:39:16;29.40;;;13.98;;
22060;SDS011;11194;48.092;-1.382;2023-06-19T00:41:42;30.30;;;14.93;;
22060;SDS011;11194;48.092;-1.382;2023-06-19T00:44:09;30.02;;;14.02;;
22060;SDS011;11194;48.092;-1.382;2023-06-19T00:46:36;24.83;;;12.80;;
22060;SDS011;11194;48.092;-1.382;2023-06-19T00:49:03;34.75;;;12.77;;
22060;SDS011;11194;48.092;-1.382;2023-06-19T00:51:29;31.25;;;12.02;;
22060;SDS011;11194;48.092;-1.382;2023-06-19T00:53:55;35.72;;;12.90;;
22060;SDS011;11194;48.092;-1.382;2023-06-19T00:56:21;25.23;;;12.43;;
22060;SDS011;11194;48.092;-1.382;2023-06-19T00:58:47;26.17;;;11.73;;
22060;SDS011;11194;48.092;-1.382;2023-06-19T01:01:13;24.58;;;12.10;;
22060;SDS011;11194;48.092;-1.382;2023-06-19T01:03:39;29.13;;;10.95;;
22060;SDS011;11194;48.092;-1.382;2023-06-19T01:06:07;32.22;;;11.73;;
22060;SDS011;11194;48.092;-1.382;2023-06-19T01:08:43;29.27;;;11.68;;
22060;SDS011;11194;48.092;-1.382;2023-06-19T01:11:10;32.75;;;11.70;;
22060;SDS011;11194;48.092;-1.382;2023-06-19T01:13:39;30.73;;;11.32;;
22060;SDS011;11194;48.092;-1.382;2023-06-19T01:16:08;31.00;;;12.60;;
22060;SDS011;11194;48.092;-1.382;2023-06-19T01:18:35;27.75;;;12.15;;
22060;SDS011;11194;48.092;-1.382;2023-06-19T01:21:12;28.27;;;12.02;;
22060;SDS011;11194;48.092;-1.382;2023-06-19T01:23:38;35.88;;;12.32;;
22060;SDS011;11194;48.092;-1.382;2023-06-19T01:26:05;30.55;;;12.20;;
22060;SDS011;11194;48.092;-1.382;2023-06-19T01:28:32;25.83;;;12.02;;
22060;SDS011;11194;48.092;-1.382;2023-06-19T01:30:58;32.22;;;11.93;;
22060;SDS011;11194;48.092;-1.382;2023-06-19T01:33:26;30.90;;;13.18;;
22060;SDS011;11194;48.092;-1.382;2023-06-19T01:35:54;27.80;;;13.20;;
22060;SDS011;11194;48.092;-1.382;2023-06-19T01:38:21;33.38;;;13.50;;
22060;SDS011;11194;48.092;-1.382;2023-06-19T01:40:50;33.20;;;14.07;;
22060;SDS011;11194;48.092;-1.382;2023-06-19T01:43:17;27.40;;;12.35;;
22060;SDS011;11194;48.092;-1.382;2023-06-19T01:45:44;32.58;;;13.55;;
22060;SDS011;11194;48.092;-1.382;2023-06-19T01:48:10;33.47;;;12.88;;
22060;SDS011;11194;48.092;-1.382;2023-06-19T01:50:36;36.47;;;13.88;;
22060;SDS011;11194;48.092;-1.382;2023-06-19T01:53:02;27.17;;;12.10;;
22060;SDS011;11194;48.092;-1.382;2023-06-19T01:55:28;40.83;;;13.40;;
22060;SDS011;11194;48.092;-1.382;2023-06-19T01:57:54;28.17;;;13.88;;
22060;SDS011;11194;48.092;-1.382;2023-06-19T02:00:20;28.40;;;13.43;;
22060;SDS011;11194;48.092;-1.382;2023-06-19T02:02:47;36.55;;;13.57;;
22060;SDS011;11194;48.092;-1.382;2023-06-19T02:05:13;33.35;;;13.13;;
22060;SDS011;11194;48.092;-1.382;2023-06-19T02:07:40;25.30;;;12.00;;
22060;SDS011;11194;48.092;-1.382;2023-06-19T02:10:06;30.25;;;12.45;;
22060;SDS011;11194;48.092;-1.382;2023-06-19T02:12:33;34.88;;;13.18;;
22060;SDS011;11194;48.092;-1.382;2023-06-19T02:14:59;27.48;;;12.35;;
22060;SDS011;11194;48.092;-1.382;2023-06-19T02:17:25;23.10;;;13.02;;
22060;SDS011;11194;48.092;-1.382;2023-06-19T02:19:51;26.48;;;12.30;;
22060;SDS011;11194;48.092;-1.382;2023-06-19T02:22:17;28.73;;;11.77;;
22060;SDS011;11194;48.092;-1.382;2023-06-19T02:24:44;40.97;;;11.93;;
22060;SDS011;11194;48.092;-1.382;2023-06-19T02:27:10;47.88;;;12.90;;
22060;SDS011;11194;48.092;-1.382;2023-06-19T02:29:36;35.92;;;12.38;;
22060;SDS011;11194;48.092;-1.382;2023-06-19T02:32:02;36.95;;;12.65;;
22060;SDS011;11194;48.092;-1.382;2023-06-19T02:34:28;38.50;;;13.52;;
22060;SDS011;11194;48.092;-1.382;2023-06-19T02:36:54;35.47;;;13.43;;
22060;SDS011;11194;48.092;-1.382;2023-06-19T02:39:20;30.55;;;13.05;;
22060;SDS011;11194;48.092;-1.382;2023-06-19T02:41:48;32.72;;;12.45;;
22060;SDS011;11194;48.092;-1.382;2023-06-19T02:44:14;31.63;;;13.27;;
22060;SDS011;11194;48.092;-1.382;2023-06-19T02:46:40;33.15;;;13.23;;
22060;SDS011;11194;48.092;-1.382;2023-06-19T02:49:06;30.60;;;12.90;;
22060;SDS011;11194;48.092;-1.382;2023-06-19T02:51:32;40.20;;;13.45;;
22060;SDS011;11194;48.092;-1.382;2023-06-19T02:53:58;35.50;;;13.43;;
22060;SDS011;11194;48.092;-1.382;2023-06-19T02:56:26;33.92;;;13.68;;
22060;SDS011;11194;48.092;-1.382;2023-06-19T02:58:54;28.48;;;13.45;;
22060;SDS011;11194;48.092;-1.382;2023-06-19T03:01:20;36.08;;;13.85;;
22060;SDS011;11194;48.092;-1.382;2023-06-19T03:03:46;33.92;;;14.63;;
22060;SDS011;11194;48.092;-1.382;2023-06-19T03:06:13;34.33;;;13.55;;
22060;SDS011;11194;48.092;-1.382;2023-06-19T03:08:39;38.20;;;14.63;;
22060;SDS011;11194;48.092;-1.382;2023-06-19T03:11:05;40.92;;;13.98;;
22060;SDS011;11194;48.092;-1.382;2023-06-19T03:13:49;36.55;;;14.65;;
22060;SDS011;11194;48.092;-1.382;2023-06-19T03:16:16;27.40;;;13.45;;
22060;SDS011;11194;48.092;-1.382;2023-06-19T03:18:42;43.53;;;14.52;;
22060;SDS011;11194;48.092;-1.382;2023-06-19T03:21:10;35.88;;;14.30;;
22060;SDS011;11194;48.092;-1.382;2023-06-19T03:23:36;30.35;;;15.07;;
22060;SDS011;11194;48.092;-1.382;2023-06-19T03:26:02;32.65;;;16.08;;
22060;SDS011;11194;48.092;-1.382;2023-06-19T03:28:28;37.15;;;16.30;;
22060;SDS011;11194;48.092;-1.382;2023-06-19T03:30:54;38.08;;;17.55;;
22060;SDS011;11194;48.092;-1.382;2023-06-19T03:33:20;39.95;;;17.67;;
22060;SDS011;11194;48.092;-1.382;2023-06-19T03:35:46;50.47;;;19.20;;
22060;SDS011;11194;48.092;-1.382;2023-06-19T03:38:12;46.88;;;18.73;;
22060;SDS011;11194;48.092;-1.382;2023-06-19T03:40:38;39.30;;;17.08;;
22060;SDS011;11194;48.092;-1.382;2023-06-19T03:43:05;43.10;;;17.63;;
22060;SDS011;11194;48.092;-1.382;2023-06-19T03:45:31;47.95;;;19.20;;
22060;SDS011;11194;48.092;-1.382;2023-06-19T03:47:57;50.53;;;20.40;;
22060;SDS011;11194;48.092;-1.382;2023-06-19T03:50:23;48.70;;;18.65;;
22060;SDS011;11194;48.092;-1.382;2023-06-19T03:52:49;44.75;;;19.17;;
22060;SDS011;11194;48.092;-1.382;2023-06-19T03:55:15;42.60;;;18.23;;
22060;SDS011;11194;48.092;-1.382;2023-06-19T03:57:41;47.13;;;19.38;;
22060;SDS011;11194;48.092;-1.382;2023-06-19T04:00:07;41.75;;;18.52;;
22060;SDS011;11194;48.092;-1.382;2023-06-19T04:02:36;50.08;;;19.35;;
22060;SDS011;11194;48.092;-1.382;2023-06-19T04:05:02;52.75;;;18.77;;
22060;SDS011;11194;48.092;-1.382;2023-06-19T04:07:28;44.15;;;17.80;;
22060;SDS011;11194;48.092;-1.382;2023-06-19T04:09:54;44.83;;;18.83;;
22060;SDS011;11194;48.092;-1.382;2023-06-19T04:12:21;43.92;;;20.80;;
22060;SDS011;11194;48.092;-1.382;2023-06-19T04:14:47;48.55;;;18.33;;
22060;SDS011;11194;48.092;-1.382;2023-06-19T04:17:13;43.97;;;18.15;;
22060;SDS011;11194;48.092;-1.382;2023-06-19T04:19:40;43.28;;;18.77;;
22060;SDS011;11194;48.092;-1.382;2023-06-19T04:22:06;47.40;;;18.23;;
22060;SDS011;11194;48.092;-1.382;2023-06-19T04:24:32;45.35;;;18.23;;
22060;SDS011;11194;48.092;-1.382;2023-06-19T04:26:58;42.95;;;18.23;;
22060;SDS011;11194;48.092;-1.382;2023-06-19T04:29:24;41.42;;;17.75;;
22060;SDS011;11194;48.092;-1.382;2023-06-19T04:31:51;41.20;;;18.27;;
22060;SDS011;11194;48.092;-1.382;2023-06-19T04:34:17;40.88;;;18.90;;
22060;SDS011;11194;48.092;-1.382;2023-06-19T04:36:49;35.42;;;17.85;;
22060;SDS011;11194;48.092;-1.382;2023-06-19T04:39:15;45.03;;;18.98;;
22060;SDS011;11194;48.092;-1.382;2023-06-19T04:41:44;45.15;;;18.95;;
22060;SDS011;11194;48.092;-1.382;2023-06-19T04:44:10;38.65;;;18.30;;
22060;SDS011;11194;48.092;-1.382;2023-06-19T04:46:40;46.63;;;19.65;;
22060;SDS011;11194;48.092;-1.382;2023-06-19T04:49:06;37.92;;;18.55;;
22060;SDS011;11194;48.092;-1.382;2023-06-19T04:51:34;39.90;;;18.27;;
22060;SDS011;11194;48.092;-1.382;2023-06-19T04:54:00;39.45;;;17.50;;
22060;SDS011;11194;48.092;-1.382;2023-06-19T04:56:26;33.55;;;16.30;;
22060;SDS011;11194;48.092;-1.382;2023-06-19T04:58:52;45.95;;;18.15;;
22060;SDS011;11194;48.092;-1.382;2023-06-19T05:01:21;43.03;;;17.55;;
22060;SDS011;11194;48.092;-1.382;2023-06-19T05:03:52;40.08;;;17.10;;
22060;SDS011;11194;48.092;-1.382;2023-06-19T05:06:18;39.60;;;17.95;;
22060;SDS011;11194;48.092;-1.382;2023-06-19T05:08:44;46.50;;;18.30;;
22060;SDS011;11194;48.092;-1.382;2023-06-19T05:11:10;44.25;;;18.00;;
22060;SDS011;11194;48.092;-1.382;2023-06-19T05:13:36;50.13;;;18.80;;
22060;SDS011;11194;48.092;-1.382;2023-06-19T05:16:02;45.50;;;17.92;;
22060;SDS011;11194;48.092;-1.382;2023-06-19T05:18:29;42.03;;;17.42;;
22060;SDS011;11194;48.092;-1.382;2023-06-19T05:20:55;44.03;;;17.35;;
22060;SDS011;11194;48.092;-1.382;2023-06-19T05:23:21;44.05;;;16.88;;
22060;SDS011;11194;48.092;-1.382;2023-06-19T05:25:48;37.92;;;17.50;;
22060;SDS011;11194;48.092;-1.382;2023-06-19T05:28:14;35.05;;;16.33;;
22060;SDS011;11194;48.092;-1.382;2023-06-19T05:30:40;32.75;;;16.50;;
22060;SDS011;11194;48.092;-1.382;2023-06-19T05:33:06;44.50;;;16.88;;
22060;SDS011;11194;48.092;-1.382;2023-06-19T05:35:32;38.28;;;16.35;;
22060;SDS011;11194;48.092;-1.382;2023-06-19T05:37:58;33.47;;;16.33;;
22060;SDS011;11194;48.092;-1.382;2023-06-19T05:40:24;39.03;;;17.17;;
22060;SDS011;11194;48.092;-1.382;2023-06-19T05:42:50;37.92;;;17.85;;
22060;SDS011;11194;48.092;-1.382;2023-06-19T05:45:16;36.55;;;16.75;;
22060;SDS011;11194;48.092;-1.382;2023-06-19T05:47:42;36.70;;;18.70;;
22060;SDS011;11194;48.092;-1.382;2023-06-19T05:50:08;34.08;;;17.27;;
22060;SDS011;11194;48.092;-1.382;2023-06-19T05:52:34;39.10;;;17.63;;
22060;SDS011;11194;48.092;-1.382;2023-06-19T05:55:01;37.92;;;17.50;;
22060;SDS011;11194;48.092;-1.382;2023-06-19T05:57:27;34.10;;;16.73;;
22060;SDS011;11194;48.092;-1.382;2023-06-19T05:59:53;28.83;;;15.30;;
22060;SDS011;11194;48.092;-1.382;2023-06-19T06:02:19;32.58;;;15.88;;
22060;SDS011;11194;48.092;-1.382;2023-06-19T06:04:45;27.05;;;15.40;;
22060;SDS011;11194;48.092;-1.382;2023-06-19T06:07:12;30.10;;;15.07;;
22060;SDS011;11194;48.092;-1.382;2023-06-19T06:09:38;31.77;;;15.43;;
22060;SDS011;11194;48.092;-1.382;2023-06-19T06:12:04;31.02;;;15.65;;
22060;SDS011;11194;48.092;-1.382;2023-06-19T06:14:31;29.17;;;16.58;;
22060;SDS011;11194;48.092;-1.382;2023-06-19T06:16:57;31.17;;;15.65;;
22060;SDS011;11194;48.092;-1.382;2023-06-19T06:19:23;29.33;;;15.80;;
22060;SDS011;11194;48.092;-1.382;2023-06-19T06:21:49;30.92;;;15.13;;
22060;SDS011;11194;48.092;-1.382;2023-06-19T06:24:15;31.65;;;15.75;;
22060;SDS011;11194;48.092;-1.382;2023-06-19T06:26:41;29.08;;;15.15;;
22060;SDS011;11194;48.092;-1.382;2023-06-19T06:29:07;29.65;;;16.00;;
22060;SDS011;11194;48.092;-1.382;2023-06-19T06:31:34;29.73;;;16.63;;
22060;SDS011;11194;48.092;-1.382;2023-06-19T06:34:00;30.45;;;15.50;;
22060;SDS011;11194;48.092;-1.382;2023-06-19T06:36:26;25.02;;;14.00;;
22060;SDS011;11194;48.092;-1.382;2023-06-19T06:38:52;25.67;;;13.50;;
22060;SDS011;11194;48.092;-1.382;2023-06-19T06:41:18;26.02;;;14.32;;
22060;SDS011;11194;48.092;-1.382;2023-06-19T06:43:44;27.00;;;16.15;;
22060;SDS011;11194;48.092;-1.382;2023-06-19T06:46:10;33.08;;;18.05;;
22060;SDS011;11194;48.092;-1.382;2023-06-19T06:48:37;45.72;;;21.92;;
22060;SDS011;11194;48.092;-1.382;2023-06-19T06:51:03;40.13;;;19.10;;
22060;SDS011;11194;48.092;-1.382;2023-06-19T06:53:29;36.75;;;17.95;;
22060;SDS011;11194;48.092;-1.382;2023-06-19T06:55:58;35.88;;;18.30;;
22060;SDS011;11194;48.092;-1.382;2023-06-19T06:58:25;29.55;;;16.75;;
22060;SDS011;11194;48.092;-1.382;2023-06-19T07:00:51;39.20;;;16.85;;
22060;SDS011;11194;48.092;-1.382;2023-06-19T07:03:18;38.03;;;17.63;;
22060;SDS011;11194;48.092;-1.382;2023-06-19T07:05:44;42.10;;;16.20;;
22060;SDS011;11194;48.092;-1.382;2023-06-19T07:08:16;45.15;;;16.88;;
22060;SDS011;11194;48.092;-1.382;2023-06-19T07:11:03;34.15;;;14.90;;
22060;SDS011;11194;48.092;-1.382;2023-06-19T07:13:29;32.72;;;16.55;;
22060;SDS011;11194;48.092;-1.382;2023-06-19T07:15:55;29.85;;;15.75;;
22060;SDS011;11194;48.092;-1.382;2023-06-19T07:18:23;38.80;;;16.35;;
22060;SDS011;11194;48.092;-1.382;2023-06-19T07:20:49;28.63;;;15.70;;
22060;SDS011;11194;48.092;-1.382;2023-06-19T07:23:16;26.45;;;15.57;;
22060;SDS011;11194;48.092;-1.382;2023-06-19T07:25:42;29.77;;;15.23;;
22060;SDS011;11194;48.092;-1.382;2023-06-19T07:28:08;26.67;;;16.33;;
22060;SDS011;11194;48.092;-1.382;2023-06-19T07:30:35;37.03;;;20.75;;
22060;SDS011;11194;48.092;-1.382;2023-06-19T07:33:01;46.65;;;26.73;;
22060;SDS011;11194;48.092;-1.382;2023-06-19T07:35:27;36.15;;;21.80;;
22060;SDS011;11194;48.092;-1.382;2023-06-19T07:37:53;29.88;;;19.02;;
22060;SDS011;11194;48.092;-1.382;2023-06-19T07:40:19;30.08;;;19.92;;
22060;SDS011;11194;48.092;-1.382;2023-06-19T07:42:45;37.55;;;23.63;;
22060;SDS011;11194;48.092;-1.382;2023-06-19T07:45:12;44.58;;;26.52;;
22060;SDS011;11194;48.092;-1.382;2023-06-19T07:47:38;39.05;;;25.77;;
22060;SDS011;11194;48.092;-1.382;2023-06-19T07:50:04;39.30;;;24.98;;
22060;SDS011;11194;48.092;-1.382;2023-06-19T07:52:31;41.55;;;28.45;;
22060;SDS011;11194;48.092;-1.382;2023-06-19T07:54:57;43.22;;;27.08;;
22060;SDS011;11194;48.092;-1.382;2023-06-19T07:57:24;36.28;;;23.33;;
22060;SDS011;11194;48.092;-1.382;2023-06-19T07:59:50;38.80;;;22.48;;
22060;SDS011;11194;48.092;-1.382;2023-06-19T08:02:17;24.13;;;14.57;;
22060;SDS011;11194;48.092;-1.382;2023-06-19T08:04:43;23.42;;;14.50;;
22060;SDS011;11194;48.092;-1.382;2023-06-19T08:07:09;22.27;;;12.40;;
22060;SDS011;11194;48.092;-1.382;2023-06-19T08:09:35;20.27;;;12.05;;
22060;SDS011;11194;48.092;-1.382;2023-06-19T08:12:01;21.73;;;10.73;;
22060;SDS011;11194;48.092;-1.382;2023-06-19T08:14:28;21.45;;;11.80;;
22060;SDS011;11194;48.092;-1.382;2023-06-19T08:16:54;22.50;;;12.75;;
22060;SDS011;11194;48.092;-1.382;2023-06-19T08:19:20;20.30;;;11.13;;
22060;SDS011;11194;48.092;-1.382;2023-06-19T08:21:46;18.88;;;11.45;;
22060;SDS011;11194;48.092;-1.382;2023-06-19T08:24:12;16.35;;;11.07;;
22060;SDS011;11194;48.092;-1.382;2023-06-19T08:26:38;18.50;;;11.63;;
22060;SDS011;11194;48.092;-1.382;2023-06-19T08:29:04;16.95;;;10.90;;
22060;SDS011;11194;48.092;-1.382;2023-06-19T08:31:30;21.77;;;13.18;;
22060;SDS011;11194;48.092;-1.382;2023-06-19T08:33:57;21.80;;;12.90;;
22060;SDS011;11194;48.092;-1.382;2023-06-19T08:36:23;19.25;;;11.73;;
22060;SDS011;11194;48.092;-1.382;2023-06-19T08:38:49;22.95;;;10.82;;
22060;SDS011;11194;48.092;-1.382;2023-06-19T08:41:17;18.98;;;11.43;;
22060;SDS011;11194;48.092;-1.382;2023-06-19T08:43:47;21.15;;;11.13;;
22060;SDS011;11194;48.092;-1.382;2023-06-19T08:46:17;18.92;;;11.63;;
22060;SDS011;11194;48.092;-1.382;2023-06-19T08:48:43;20.10;;;12.15;;
22060;SDS011;11194;48.092;-1.382;2023-06-19T08:51:10;14.85;;;10.02;;
22060;SDS011;11194;48.092;-1.382;2023-06-19T08:53:36;17.38;;;9.90;;
22060;SDS011;11194;48.092;-1.382;2023-06-19T08:56:03;15.57;;;9.60;;
22060;SDS011;11194;48.092;-1.382;2023-06-19T08:58:29;15.95;;;9.60;;
22060;SDS011;11194;48.092;-1.382;2023-06-19T09:00:57;14.57;;;8.80;;
22060;SDS011;11194;48.092;-1.382;2023-06-19T09:03:24;13.32;;;8.80;;
22060;SDS011;11194;48.092;-1.382;2023-06-19T09:05:50;14.20;;;9.40;;
22060;SDS011;11194;48.092;-1.382;2023-06-19T09:08:16;13.07;;;8.40;;
22060;SDS011;11194;48.092;-1.382;2023-06-19T09:10:53;12.85;;;8.52;;
22060;SDS011;11194;48.092;-1.382;2023-06-19T09:13:19;12.93;;;8.15;;
22060;SDS011;11194;48.092;-1.382;2023-06-19T09:15:46;12.02;;;8.00;;
22060;SDS011;11194;48.092;-1.382;2023-06-19T09:18:12;13.07;;;8.20;;
22060;SDS011;11194;48.092;-1.382;2023-06-19T09:20:41;15.40;;;8.88;;
22060;SDS011;11194;48.092;-1.382;2023-06-19T09:23:12;12.43;;;8.30;;
22060;SDS011;11194;48.092;-1.382;2023-06-19T09:25:53;14.57;;;9.00;;
22060;SDS011;11194;48.092;-1.382;2023-06-19T09:28:21;14.65;;;8.38;;
22060;SDS011;11194;48.092;-1.382;2023-06-19T09:30:54;12.23;;;8.10;;
22060;SDS011;11194;48.092;-1.382;2023-06-19T09:33:21;12.07;;;8.45;;
22060;SDS011;11194;48.092;-1.382;2023-06-19T09:35:47;13.63;;;8.70;;
22060;SDS011;11194;48.092;-1.382;2023-06-19T09:38:14;12.23;;;8.50;;
22060;SDS011;11194;48.092;-1.382;2023-06-19T09:40:43;13.63;;;7.97;;
22060;SDS011;11194;48.092;-1.382;2023-06-19T09:43:10;15.75;;;8.75;;
22060;SDS011;11194;48.092;-1.382;2023-06-19T09:45:36;14.77;;;8.77;;
22060;SDS011;11194;48.092;-1.382;2023-06-19T09:48:02;14.90;;;8.23;;
22060;SDS011;11194;48.092;-1.382;2023-06-19T09:50:29;13.40;;;8.90;;
22060;SDS011;11194;48.092;-1.382;2023-06-19T09:52:55;10.02;;;7.85;;
22060;SDS011;11194;48.092;-1.382;2023-06-19T09:55:22;12.40;;;8.18;;
22060;SDS011;11194;48.092;-1.382;2023-06-19T09:57:53;14.48;;;8.10;;
22060;SDS011;11194;48.092;-1.382;2023-06-19T10:00:20;12.13;;;7.78;;
22060;SDS011;11194;48.092;-1.382;2023-06-19T10:02:51;10.00;;;7.72;;
22060;SDS011;11194;48.092;-1.382;2023-06-19T10:05:27;10.90;;;7.80;;
22060;SDS011;11194;48.092;-1.382;2023-06-19T10:07:53;12.32;;;7.85;;
22060;SDS011;11194;48.092;-1.382;2023-06-19T10:10:24;9.93;;;7.25;;
22060;SDS011;11194;48.092;-1.382;2023-06-19T10:12:51;11.65;;;7.30;;
22060;SDS011;11194;48.092;-1.382;2023-06-19T10:15:20;11.65;;;7.72;;
22060;SDS011;11194;48.092;-1.382;2023-06-19T10:17:50;11.27;;;6.93;;
22060;SDS011;11194;48.092;-1.382;2023-06-19T10:20:33;8.80;;;6.40;;
22060;SDS011;11194;48.092;-1.382;2023-06-19T10:25:39;10.38;;;7.00;;
22060;SDS011;11194;48.092;-1.382;2023-06-19T10:28:16;13.85;;;7.70;;
22060;SDS011;11194;48.092;-1.382;2023-06-19T10:30:42;11.90;;;7.78;;
22060;SDS011;11194;48.092;-1.382;2023-06-19T10:33:08;9.23;;;7.03;;
22060;SDS011;11194;48.092;-1.382;2023-06-19T10:35:38;11.52;;;6.88;;
22060;SDS011;11194;48.092;-1.382;2023-06-19T10:38:05;11.07;;;7.55;;
22060;SDS011;11194;48.092;-1.382;2023-06-19T10:40:31;10.82;;;7.55;;
22060;SDS011;11194;48.092;-1.382;2023-06-19T10:42:57;10.73;;;6.88;;
22060;SDS011;11194;48.092;-1.382;2023-06-19T10:45:23;10.35;;;6.45;;
22060;SDS011;11194;48.092;-1.382;2023-06-19T10:47:53;9.95;;;6.10;;
22060;SDS011;11194;48.092;-1.382;2023-06-19T10:50:20;9.77;;;6.20;;
22060;SDS011;11194;48.092;-1.382;2023-06-19T10:52:46;8.75;;;6.13;;
22060;SDS011;11194;48.092;-1.382;2023-06-19T10:55:14;9.70;;;6.22;;
22060;SDS011;11194;48.092;-1.382;2023-06-19T10:57:47;10.02;;;6.80;;
22060;SDS011;11194;48.092;-1.382;2023-06-19T11:00:27;10.45;;;6.50;;
22060;SDS011;11194;48.092;-1.382;2023-06-19T11:02:53;11.20;;;6.63;;
22060;SDS011;11194;48.092;-1.382;2023-06-19T11:05:19;11.07;;;6.70;;
22060;SDS011;11194;48.092;-1.382;2023-06-19T11:07:55;9.68;;;5.90;;
22060;SDS011;11194;48.092;-1.382;2023-06-19T11:10:22;10.40;;;6.07;;
22060;SDS011;11194;48.092;-1.382;2023-06-19T11:12:49;9.82;;;6.70;;
22060;SDS011;11194;48.092;-1.382;2023-06-19T11:15:15;10.60;;;7.47;;
22060;SDS011;11194;48.092;-1.382;2023-06-19T11:17:41;9.68;;;6.68;;
22060;SDS011;11194;48.092;-1.382;2023-06-19T11:20:16;10.82;;;6.45;;
22060;SDS011;11194;48.092;-1.382;2023-06-19T11:22:42;9.23;;;6.80;;
22060;SDS011;11194;48.092;-1.382;2023-06-19T11:25:09;9.75;;;6.95;;
22060;SDS011;11194;48.092;-1.382;2023-06-19T11:27:36;11.07;;;7.05;;
22060;SDS011;11194;48.092;-1.382;2023-06-19T11:30:04;9.57;;;7.03;;
22060;SDS011;11194;48.092;-1.382;2023-06-19T11:32:33;10.27;;;6.57;;
22060;SDS011;11194;48.092;-1.382;2023-06-19T11:35:04;11.20;;;6.68;;
22060;SDS011;11194;48.092;-1.382;2023-06-19T11:37:32;9.50;;;6.00;;
22060;SDS011;11194;48.092;-1.382;2023-06-19T11:39:59;7.93;;;5.93;;
22060;SDS011;11194;48.092;-1.382;2023-06-19T11:42:26;7.82;;;6.07;;
22060;SDS011;11194;48.092;-1.382;2023-06-19T11:44:52;8.60;;;5.93;;
22060;SDS011;11194;48.092;-1.382;2023-06-19T11:47:19;9.05;;;6.07;;
22060;SDS011;11194;48.092;-1.382;2023-06-19T11:49:47;8.25;;;5.80;;
22060;SDS011;11194;48.092;-1.382;2023-06-19T11:52:13;7.80;;;5.47;;
22060;SDS011;11194;48.092;-1.382;2023-06-19T11:54:39;7.82;;;5.10;;
22060;SDS011;11194;48.092;-1.382;2023-06-19T11:57:05;9.40;;;5.20;;
22060;SDS011;11194;48.092;-1.382;2023-06-19T11:59:31;7.15;;;5.32;;
22060;SDS011;11194;48.092;-1.382;2023-06-19T12:01:58;7.20;;;5.10;;
22060;SDS011;11194;48.092;-1.382;2023-06-19T12:04:24;7.43;;;5.32;;
22060;SDS011;11194;48.092;-1.382;2023-06-19T12:06:51;7.20;;;4.82;;
22060;SDS011;11194;48.092;-1.382;2023-06-19T12:09:18;8.77;;;4.80;;
22060;SDS011;11194;48.092;-1.382;2023-06-19T12:11:44;5.95;;;4.53;;
22060;SDS011;11194;48.092;-1.382;2023-06-19T12:14:10;6.57;;;4.47;;
22060;SDS011;11194;48.092;-1.382;2023-06-19T12:16:36;6.10;;;4.60;;
22060;SDS011;11194;48.092;-1.382;2023-06-19T12:19:02;9.20;;;4.55;;
22060;SDS011;11194;48.092;-1.382;2023-06-19T12:21:28;8.68;;;5.07;;
22060;SDS011;11194;48.092;-1.382;2023-06-19T12:23:54;8.05;;;4.20;;
22060;SDS011;11194;48.092;-1.382;2023-06-19T12:26:20;6.18;;;4.22;;
22060;SDS011;11194;48.092;-1.382;2023-06-19T12:28:46;7.47;;;4.13;;
22060;SDS011;11194;48.092;-1.382;2023-06-19T12:31:13;6.40;;;4.20;;
22060;SDS011;11194;48.092;-1.382;2023-06-19T12:33:39;6.18;;;4.18;;
22060;SDS011;11194;48.092;-1.382;2023-06-19T12:36:09;5.70;;;4.15;;
22060;SDS011;11194;48.092;-1.382;2023-06-19T12:38:38;7.25;;;4.50;;
22060;SDS011;11194;48.092;-1.382;2023-06-19T12:41:04;6.07;;;4.00;;
22060;SDS011;11194;48.092;-1.382;2023-06-19T12:43:31;8.13;;;4.03;;
22060;SDS011;11194;48.092;-1.382;2023-06-19T12:45:57;9.23;;;4.13;;
22060;SDS011;11194;48.092;-1.382;2023-06-19T12:48:27;7.65;;;4.20;;
22060;SDS011;11194;48.092;-1.382;2023-06-19T12:50:53;5.65;;;3.67;;
22060;SDS011;11194;48.092;-1.382;2023-06-19T12:53:20;6.35;;;4.00;;
22060;SDS011;11194;48.092;-1.382;2023-06-19T12:55:51;6.15;;;3.60;;
22060;SDS011;11194;48.092;-1.382;2023-06-19T12:58:18;5.95;;;4.07;;
22060;SDS011;11194;48.092;-1.382;2023-06-19T13:00:44;8.57;;;3.92;;
22060;SDS011;11194;48.092;-1.382;2023-06-19T13:03:10;5.60;;;4.28;;
22060;SDS011;11194;48.092;-1.382;2023-06-19T13:05:36;9.40;;;4.78;;
22060;SDS011;11194;48.092;-1.382;2023-06-19T13:08:02;8.07;;;4.75;;
22060;SDS011;11194;48.092;-1.382;2023-06-19T13:10:28;5.72;;;4.10;;
22060;SDS011;11194;48.092;-1.382;2023-06-19T13:12:54;8.38;;;3.75;;
22060;SDS011;11194;48.092;-1.382;2023-06-19T13:15:23;9.35;;;4.22;;
22060;SDS011;11194;48.092;-1.382;2023-06-19T13:17:49;6.50;;;4.40;;
22060;SDS011;11194;48.092;-1.382;2023-06-19T13:20:15;7.85;;;4.30;;
22060;SDS011;11194;48.092;-1.382;2023-06-19T13:22:41;7.55;;;4.30;;
22060;SDS011;11194;48.092;-1.382;2023-06-19T13:25:08;6.68;;;3.85;;
22060;SDS011;11194;48.092;-1.382;2023-06-19T13:27:34;7.97;;;4.25;;
22060;SDS011;11194;48.092;-1.382;2023-06-19T13:30:01;5.18;;;3.97;;
22060;SDS011;11194;48.092;-1.382;2023-06-19T13:32:27;7.25;;;4.43;;
22060;SDS011;11194;48.092;-1.382;2023-06-19T13:34:53;5.60;;;4.10;;
22060;SDS011;11194;48.092;-1.382;2023-06-19T13:37:20;5.55;;;3.80;;
22060;SDS011;11194;48.092;-1.382;2023-06-19T13:39:46;7.43;;;4.20;;
22060;SDS011;11194;48.092;-1.382;2023-06-19T13:42:13;7.95;;;4.05;;
22060;SDS011;11194;48.092;-1.382;2023-06-19T13:44:39;5.40;;;3.85;;
22060;SDS011;11194;48.092;-1.382;2023-06-19T13:47:05;5.40;;;3.72;;
22060;SDS011;11194;48.092;-1.382;2023-06-19T13:49:31;5.90;;;3.80;;
22060;SDS011;11194;48.092;-1.382;2023-06-19T13:51:57;5.45;;;3.60;;
22060;SDS011;11194;48.092;-1.382;2023-06-19T13:54:23;7.32;;;3.70;;
22060;SDS011;11194;48.092;-1.382;2023-06-19T13:56:49;8.10;;;4.18;;
22060;SDS011;11194;48.092;-1.382;2023-06-19T13:59:16;5.68;;;3.83;;
22060;SDS011;11194;48.092;-1.382;2023-06-19T14:01:42;6.10;;;3.92;;
22060;SDS011;11194;48.092;-1.382;2023-06-19T14:04:08;6.63;;;3.35;;
22060;SDS011;11194;48.092;-1.382;2023-06-19T14:06:34;5.93;;;3.70;;
22060;SDS011;11194;48.092;-1.382;2023-06-19T14:09:03;5.50;;;3.78;;
22060;SDS011;11194;48.092;-1.382;2023-06-19T14:11:29;5.13;;;3.22;;
22060;SDS011;11194;48.092;-1.382;2023-06-19T14:13:57;5.10;;;3.60;;
22060;SDS011;11194;48.092;-1.382;2023-06-19T14:16:23;5.50;;;3.60;;